Time;durP1;ratioP1;P1;durP2;ratioP2;P2;SDS_P1;SDS_P2;PMS_P1;PMS_P2;Temp;Humidity;BMP_temperature;BMP_pressure;BME280_temperature;BME280_humidity;BME280_pressure;Samples;Min_cycle;Max_cycle;Signal;HPM_P1;HPM_P2
2021/06/14 00:01:45;;;;;;;2.02;0.75;;;;;;;20.11;64.74;100862.05;1679567;84;21028;-48
2021/06/14 00:04:12;;;;;;;2.22;0.70;;;;;;;20.09;64.59;100862.61;1709050;83;21106;-47
2021/06/14 00:06:38;;;;;;;0.95;0.65;;;;;;;20.07;64.56;100868.45;1698295;83;21497;-48
2021/06/14 00:09:06;;;;;;;1.60;0.80;;;;;;;20.06;64.93;100869.38;1683007;83;21058;-48
2021/06/14 00:11:33;;;;;;;1.55;0.80;;;;;;;20.07;64.91;100873.73;1690008;83;21047;-48
2021/06/14 00:14:01;;;;;;;1.37;0.60;;;;;;;20.09;65.16;100873.17;1706712;83;21050;-50
2021/06/14 00:16:28;;;;;;;0.80;0.80;;;;;;;20.10;64.98;100885.42;1679477;83;21011;-50
2021/06/14 00:18:55;;;;;;;1.40;0.62;;;;;;;20.09;65.04;100883.74;1681813;84;21039;-48
2021/06/14 00:21:23;;;;;;;1.25;0.90;;;;;;;20.09;64.78;100880.61;1688077;83;21018;-50
2021/06/14 00:23:49;;;;;;;1.35;0.82;;;;;;;20.10;64.97;100873.54;1681364;83;21085;-48
2021/06/14 00:26:17;;;;;;;1.70;0.90;;;;;;;20.10;64.82;100865.61;1705666;83;21066;-48
2021/06/14 00:28:43;;;;;;;0.80;0.75;;;;;;;20.11;64.89;100860.23;1687118;83;21027;-50
2021/06/14 00:31:10;;;;;;;1.00;0.60;;;;;;;20.13;64.70;100870.73;1698032;83;21035;-50
2021/06/14 00:33:38;;;;;;;2.52;0.72;;;;;;;20.13;64.49;100870.73;1677852;83;21827;-50
2021/06/14 00:36:06;;;;;;;1.65;1.25;;;;;;;20.12;64.53;100869.88;1716259;83;21058;-48
2021/06/14 00:38:32;;;;;;;0.80;0.80;;;;;;;20.11;64.52;100865.52;1692907;83;21096;-50
2021/06/14 00:41:00;;;;;;;0.88;0.60;;;;;;;20.10;64.42;100865.61;1711458;83;21015;-48
2021/06/14 00:43:27;;;;;;;1.50;0.90;;;;;;;20.10;64.61;100869.11;1696858;83;21038;-47
2021/06/14 00:45:54;;;;;;;1.05;0.90;;;;;;;20.11;64.93;100873.44;1705481;83;21030;-47
2021/06/14 00:48:22;;;;;;;2.52;1.27;;;;;;;20.10;64.88;100869.58;1685715;83;21155;-50
2021/06/14 00:51:02;;;;;;;1.75;0.90;;;;;;;20.11;64.96;100868.66;1683667;83;21046;-49
2021/06/14 00:53:33;;;;;;;1.25;0.90;;;;;;;20.10;64.53;100868.25;1685787;83;21024;-48
2021/06/14 00:56:01;;;;;;;1.67;1.07;;;;;;;20.10;64.04;100862.97;1680510;84;21023;-49
2021/06/14 00:58:29;;;;;;;2.08;1.22;;;;;;;20.06;63.97;100860.99;1681292;84;21549;-49
2021/06/14 01:00:57;;;;;;;1.92;1.30;;;;;;;20.05;63.95;100853.99;1701443;84;21593;-50
2021/06/14 01:03:24;;;;;;;2.42;1.50;;;;;;;20.05;63.85;100853.99;1702571;83;21096;-51
2021/06/14 01:05:57;;;;;;;1.45;1.17;;;;;;;20.05;63.95;100862.41;1696024;83;21015;-49
2021/06/14 01:08:25;;;;;;;2.33;1.50;;;;;;;20.04;64.12;100868.62;1681035;83;21014;-50
2021/06/14 01:10:54;;;;;;;1.77;1.52;;;;;;;20.03;63.65;100862.48;1710334;83;21097;-49
2021/06/14 01:13:36;;;;;;;1.72;1.10;;;;;;;20.03;63.64;100859.84;1692433;84;21106;-49
2021/06/14 01:16:45;;;;;;;2.40;1.35;;;;;;;20.03;63.40;100856.38;1689946;84;21062;-50
2021/06/14 01:19:57;;;;;;;1.77;1.37;;;;;;;20.03;63.26;100853.73;1682929;83;21100;-51
2021/06/14 01:22:55;;;;;;;4.37;1.52;;;;;;;20.03;63.09;100848.45;1674952;83;20991;-47
2021/06/14 01:25:29;;;;;;;2.55;1.82;;;;;;;20.00;62.72;100844.65;1687438;83;21074;-48
2021/06/14 01:27:57;;;;;;;1.82;1.65;;;;;;;19.95;63.05;100848.88;1685137;85;21046;-48
2021/06/14 01:30:32;;;;;;;2.20;1.40;;;;;;;19.93;63.10;100852.53;1687447;84;21527;-47
2021/06/14 01:33:01;;;;;;;1.50;1.40;;;;;;;19.96;63.33;100861.62;1678232;83;21073;-47
2021/06/14 01:35:53;;;;;;;2.17;1.50;;;;;;;20.01;63.48;100863.53;1662363;85;21027;-50
2021/06/14 01:38:22;;;;;;;3.02;1.75;;;;;;;20.05;63.18;100859.77;1661172;84;21080;-49
2021/06/14 01:40:53;;;;;;;5.05;1.50;;;;;;;20.10;63.13;100859.01;1608679;88;21564;-50
2021/06/14 01:43:25;;;;;;;3.22;1.70;;;;;;;20.13;62.95;100850.92;1646473;87;21082;-49
2021/06/14 01:45:57;;;;;;;2.90;1.60;;;;;;;20.13;62.66;100850.42;1646578;87;21065;-50
2021/06/14 01:48:24;;;;;;;3.80;2.40;;;;;;;20.14;62.83;100846.00;1646814;87;20993;-49
2021/06/14 01:50:51;;;;;;;3.58;2.10;;;;;;;20.16;62.75;100856.00;1587383;89;21027;-49
2021/06/14 01:53:17;;;;;;;1.85;1.60;;;;;;;20.17;62.47;100852.44;1646199;87;21573;-49
2021/06/14 01:55:46;;;;;;;2.52;1.77;;;;;;;20.19;62.43;100854.52;1650427;87;21714;-48
2021/06/14 01:58:14;;;;;;;1.85;1.57;;;;;;;20.22;62.31;100851.70;1649194;87;21045;-49
2021/06/14 02:00:43;;;;;;;1.98;1.60;;;;;;;20.23;61.84;100845.49;1594380;90;21038;-49
2021/06/14 02:03:15;;;;;;;3.25;2.02;;;;;;;20.23;61.58;100850.78;1550199;92;21274;-49
2021/06/14 02:05:49;;;;;;;2.35;1.25;;;;;;;20.23;61.04;100840.20;1550326;91;21074;-49
2021/06/14 02:08:18;;;;;;;2.00;1.80;;;;;;;20.21;60.84;100836.81;1523160;92;21138;-50
2021/06/14 02:10:46;;;;;;;3.58;1.92;;;;;;;20.20;61.37;100843.87;1550622;91;21101;-50
2021/06/14 02:13:13;;;;;;;3.77;2.12;;;;;;;20.15;61.65;100846.39;1552075;92;21085;-49
2021/06/14 02:15:42;;;;;;;3.20;2.12;;;;;;;20.15;61.98;100836.65;1550291;91;21581;-48
2021/06/14 02:18:10;;;;;;;2.62;1.90;;;;;;;20.17;62.17;100833.94;1550287;91;21081;-48
2021/06/14 02:20:41;;;;;;;3.65;2.50;;;;;;;20.19;61.92;100834.70;1550460;91;21113;-49
2021/06/14 02:23:08;;;;;;;3.45;2.10;;;;;;;20.20;61.93;100832.45;1550252;91;21117;-49
2021/06/14 02:25:35;;;;;;;2.12;1.90;;;;;;;20.20;61.79;100835.09;1547270;91;21082;-48
2021/06/14 02:28:03;;;;;;;6.60;2.10;;;;;;;20.21;61.51;100830.20;1575240;89;21102;-49
2021/06/14 02:30:30;;;;;;;4.78;2.10;;;;;;;20.22;61.72;100835.85;1594291;89;21109;-49
2021/06/14 02:32:58;;;;;;;5.37;2.65;;;;;;;20.23;61.61;100831.82;1594131;90;21565;-49
2021/06/14 02:35:25;;;;;;;3.85;2.62;;;;;;;20.23;61.51;100836.25;1621936;87;21002;-49
2021/06/14 02:37:58;;;;;;;6.97;2.75;;;;;;;20.25;61.86;100835.68;1626038;88;21138;-49
2021/06/14 02:40:29;;;;;;;3.45;2.47;;;;;;;20.27;62.14;100844.36;1618092;87;21038;-49
2021/06/14 02:43:00;;;;;;;3.85;2.67;;;;;;;20.28;61.82;100849.55;1630483;87;21158;-49
2021/06/14 02:45:28;;;;;;;5.35;2.35;;;;;;;20.28;61.78;100837.30;1580426;89;21575;-49
2021/06/14 02:47:55;;;;;;;2.37;1.90;;;;;;;20.26;61.65;100840.01;1533096;92;22265;-49
2021/06/14 02:50:23;;;;;;;3.70;2.10;;;;;;;20.27;61.54;100841.72;1536478;92;21156;-48
2021/06/14 02:52:52;;;;;;;4.53;1.95;;;;;;;20.28;61.73;100848.69;1533915;92;21046;-49
2021/06/14 02:55:22;;;;;;;4.10;2.75;;;;;;;20.28;61.90;100850.87;1529232;92;21035;-49
2021/06/14 02:57:55;;;;;;;4.75;2.85;;;;;;;20.30;61.86;100860.02;1569299;88;21031;-49
2021/06/14 03:00:24;;;;;;;3.87;2.70;;;;;;;20.30;61.30;100857.37;1594275;88;21109;-49
2021/06/14 03:02:50;;;;;;;4.75;2.60;;;;;;;20.28;61.63;100849.55;1619800;86;21056;-48
2021/06/14 03:05:18;;;;;;;3.77;2.55;;;;;;;20.29;61.58;100860.98;1640270;85;21042;-49
2021/06/14 03:07:45;;;;;;;3.60;2.37;;;;;;;20.31;61.70;100853.80;1655928;85;21074;-49
2021/06/14 03:10:13;;;;;;;4.15;2.60;;;;;;;20.31;61.68;100856.45;1649563;85;21113;-49
2021/06/14 03:12:41;;;;;;;3.75;2.58;;;;;;;20.32;61.75;100849.38;1619132;86;21065;-48
2021/06/14 03:15:09;;;;;;;4.12;2.50;;;;;;;20.32;61.89;100847.56;1634000;86;21021;-49
2021/06/14 03:17:36;;;;;;;2.55;2.10;;;;;;;20.33;61.74;100845.31;1624238;86;21124;-49
2021/06/14 03:20:06;;;;;;;3.92;2.35;;;;;;;20.31;61.83;100845.88;1627483;86;21741;-49
2021/06/14 03:22:33;;;;;;;3.05;2.00;;;;;;;20.30;61.38;100844.16;1659476;83;21579;-49
2021/06/14 03:25:00;;;;;;;4.50;2.17;;;;;;;20.30;61.34;100857.37;1697321;83;21055;-48
2021/06/14 03:27:27;;;;;;;4.22;2.10;;;;;;;20.28;61.06;100856.62;1697479;83;21071;-49
2021/06/14 03:29:53;;;;;;;2.67;2.17;;;;;;;20.30;61.03;100859.19;1705326;84;21055;-49
2021/06/14 03:32:20;;;;;;;4.15;2.50;;;;;;;20.31;61.00;100867.02;1682969;83;21015;-48
2021/06/14 03:34:47;;;;;;;3.83;2.40;;;;;;;20.31;60.66;100867.02;1679766;84;21026;-49
2021/06/14 03:37:14;;;;;;;5.85;2.40;;;;;;;20.29;60.78;100862.30;1698939;84;21031;-49
2021/06/14 03:39:41;;;;;;;3.65;2.22;;;;;;;20.28;60.79;100863.72;1687722;82;21086;-48
2021/06/14 03:42:09;;;;;;;3.75;2.25;;;;;;;20.26;61.26;100864.65;1694368;83;21470;-48
2021/06/14 03:44:36;;;;;;;3.83;2.30;;;;;;;20.26;61.53;100863.79;1694866;83;21584;-49
2021/06/14 03:47:04;;;;;;;4.08;2.67;;;;;;;20.29;61.62;100870.23;1692224;83;21046;-49
2021/06/14 03:49:31;;;;;;;4.62;2.67;;;;;;;20.32;62.06;100875.31;1699660;83;21636;-49
2021/06/14 03:51:59;;;;;;;6.10;2.90;;;;;;;20.33;61.60;100869.56;1685313;83;21024;-49
2021/06/14 03:54:26;;;;;;;5.37;2.20;;;;;;;20.30;61.59;100870.59;1674897;84;21085;-49
2021/06/14 03:56:52;;;;;;;1.90;1.77;;;;;;;20.31;61.41;100870.13;1694491;83;20994;-49
2021/06/14 03:59:21;;;;;;;7.10;2.20;;;;;;;20.33;61.30;100882.78;1694948;84;21050;-49
2021/06/14 04:01:48;;;;;;;3.50;2.40;;;;;;;20.33;60.69;100877.49;1689921;83;21066;-49
2021/06/14 04:06:53;;;;;;;4.72;2.67;;;;;;;20.31;61.03;100861.73;1669807;85;21030;-49
2021/06/14 04:09:20;;;;;;;5.28;2.60;;;;;;;20.32;61.19;100852.02;1682001;84;21050;-49
2021/06/14 04:11:47;;;;;;;4.45;1.98;;;;;;;20.30;61.21;100848.62;1690410;85;21070;-48
2021/06/14 04:14:14;;;;;;;3.95;2.40;;;;;;;20.29;60.97;100864.94;1685420;84;21050;-47
2021/06/14 04:16:40;;;;;;;4.55;2.10;;;;;;;20.28;61.09;100879.08;1682873;84;21046;-48
2021/06/14 04:19:07;;;;;;;4.28;1.95;;;;;;;20.28;60.78;100883.54;1684143;84;21625;-47
2021/06/14 04:21:34;;;;;;;3.00;2.00;;;;;;;20.28;60.85;100890.97;1683048;84;21077;-48
2021/06/14 04:24:01;;;;;;;2.22;1.85;;;;;;;20.23;61.07;100887.77;1674775;84;21061;-48
2021/06/14 04:26:28;;;;;;;3.37;2.37;;;;;;;20.21;61.08;100893.62;1674048;84;21077;-48
2021/06/14 04:28:55;;;;;;;3.67;1.95;;;;;;;20.21;61.34;100887.02;1676024;84;21043;-48
2021/06/14 04:31:21;;;;;;;4.25;2.17;;;;;;;20.21;61.24;100883.05;1678540;85;21019;-48
2021/06/14 04:33:48;;;;;;;3.15;2.85;;;;;;;20.23;61.74;100891.73;1677106;84;21195;-48
2021/06/14 04:36:15;;;;;;;4.17;2.47;;;;;;;20.24;61.98;100890.31;1675959;84;21015;-49
2021/06/14 04:38:41;;;;;;;5.03;2.70;;;;;;;20.24;62.01;100886.81;1665770;85;21158;-48
2021/06/14 04:41:08;;;;;;;3.52;2.58;;;;;;;20.22;61.93;100892.66;1655861;85;21628;-48
2021/06/14 04:43:35;;;;;;;2.52;2.30;;;;;;;20.10;62.07;100890.71;1652660;84;22491;-48
2021/06/14 04:46:02;;;;;;;4.83;2.30;;;;;;;20.07;62.35;100891.73;1678842;84;21103;-48
2021/06/14 04:48:30;;;;;;;2.92;2.52;;;;;;;20.07;62.57;100901.48;1649072;86;21105;-48
2021/06/14 04:50:56;;;;;;;3.15;1.98;;;;;;;20.06;62.41;100895.80;1693500;83;21047;-49
2021/06/14 04:53:23;;;;;;;3.30;2.10;;;;;;;20.05;62.49;100896.75;1680543;84;21596;-48
2021/06/14 04:55:50;;;;;;;3.20;2.17;;;;;;;20.04;62.61;100893.25;1702914;82;21038;-48
2021/06/14 04:58:16;;;;;;;4.67;2.67;;;;;;;20.05;62.51;100898.90;1682083;83;21659;-48
2021/06/14 05:00:43;;;;;;;3.37;2.70;;;;;;;20.05;62.59;100890.97;1699550;83;21089;-48
2021/06/14 05:03:10;;;;;;;3.75;1.90;;;;;;;20.06;62.57;100897.12;1682456;83;21301;-48
2021/06/14 05:05:38;;;;;;;4.80;2.92;;;;;;;20.07;62.93;100897.52;1687019;83;21034;-48
2021/06/14 05:08:06;;;;;;;4.03;2.70;;;;;;;20.09;62.35;100896.95;1688220;83;21055;-48
2021/06/14 05:10:33;;;;;;;2.85;2.17;;;;;;;20.10;62.29;100903.92;1678008;83;21419;-48
2021/06/14 05:12:59;;;;;;;4.08;2.90;;;;;;;20.11;62.22;100909.10;1696388;83;21008;-48
2021/06/14 05:15:26;;;;;;;5.65;2.37;;;;;;;20.12;62.48;100907.32;1700622;83;21077;-49
2021/06/14 05:17:53;;;;;;;2.45;2.15;;;;;;;20.16;62.62;100915.45;1693244;83;21039;-49
2021/06/14 05:20:19;;;;;;;3.37;2.55;;;;;;;20.20;62.37;100919.64;1689211;83;21518;-48
2021/06/14 05:22:46;;;;;;;4.92;2.37;;;;;;;20.20;62.22;100922.28;1676885;83;21087;-48
2021/06/14 05:25:13;;;;;;;7.10;2.83;;;;;;;20.19;62.33;100920.56;1688842;83;21058;-48
2021/06/14 05:27:40;;;;;;;2.70;2.20;;;;;;;20.18;62.16;100910.92;1692371;83;21546;-49
2021/06/14 05:30:09;;;;;;;6.58;2.67;;;;;;;20.18;62.30;100917.53;1687428;84;21594;-48
2021/06/14 05:32:35;;;;;;;3.98;2.27;;;;;;;20.19;62.49;100917.92;1686671;83;21571;-49
2021/06/14 05:35:02;;;;;;;3.47;2.30;;;;;;;20.00;62.91;100922.56;1685442;83;21051;-48
2021/06/14 05:37:29;;;;;;;7.83;2.70;;;;;;;19.97;63.04;100918.80;1688406;83;21082;-49
2021/06/14 05:39:56;;;;;;;4.05;2.40;;;;;;;19.97;63.09;100922.77;1696018;82;21102;-48
2021/06/14 05:42:22;;;;;;;4.87;2.12;;;;;;;19.98;63.27;100917.38;1693092;82;21089;-48
2021/06/14 05:44:49;;;;;;;6.62;2.55;;;;;;;20.01;63.34;100921.15;1660821;83;21107;-48
2021/06/14 05:47:16;;;;;;;3.30;2.33;;;;;;;20.05;63.13;100923.17;1715110;82;21050;-47
2021/06/14 05:49:44;;;;;;;4.30;2.10;;;;;;;20.06;63.02;100924.86;1693584;83;21066;-48
2021/06/14 05:52:11;;;;;;;4.30;2.25;;;;;;;20.07;62.84;100925.25;1679811;83;21074;-48
2021/06/14 05:54:38;;;;;;;3.55;2.20;;;;;;;20.09;62.60;100927.33;1684769;83;21522;-48
2021/06/14 05:57:07;;;;;;;6.33;2.67;;;;;;;20.09;62.52;100933.44;1675275;84;21027;-48
2021/06/14 05:59:34;;;;;;;5.47;2.30;;;;;;;20.08;62.27;100930.44;1692162;83;21081;-48
2021/06/14 06:02:03;;;;;;;2.55;1.90;;;;;;;20.10;62.63;100931.66;1686692;84;21062;-48
2021/06/14 06:04:29;;;;;;;4.90;2.10;;;;;;;20.27;62.09;100939.50;1718614;82;21062;-47
2021/06/14 06:06:56;;;;;;;4.80;2.50;;;;;;;20.28;62.04;100931.11;1682289;83;21084;-48
2021/06/14 06:09:23;;;;;;;2.25;1.87;;;;;;;20.29;62.23;100938.94;1659765;84;21076;-48
2021/06/14 06:11:50;;;;;;;3.58;2.17;;;;;;;20.31;62.18;100946.77;1646892;85;21067;-48
2021/06/14 06:14:17;;;;;;;4.33;2.10;;;;;;;20.30;61.84;100943.27;1642146;86;21055;-48
2021/06/14 06:16:43;;;;;;;2.90;1.90;;;;;;;20.32;61.77;100947.16;1652103;85;21038;-48
2021/06/14 06:19:11;;;;;;;3.72;2.05;;;;;;;20.32;61.75;100945.34;1660413;85;21568;-48
2021/06/14 06:21:38;;;;;;;4.78;2.47;;;;;;;20.34;61.87;100947.42;1672167;85;21056;-48
2021/06/14 06:24:05;;;;;;;2.72;2.10;;;;;;;20.34;62.00;100950.06;1656315;85;21585;-48
2021/06/14 06:26:32;;;;;;;3.98;2.00;;;;;;;20.36;61.88;100957.93;1695062;83;21049;-48
2021/06/14 06:28:58;;;;;;;2.70;1.90;;;;;;;20.36;61.92;100952.15;1708810;83;21090;-48
2021/06/14 06:31:26;;;;;;;5.97;2.20;;;;;;;20.39;61.63;100948.02;1685495;83;21049;-49
2021/06/14 06:33:53;;;;;;;3.92;2.00;;;;;;;20.41;61.77;100947.45;1696644;83;21038;-49
2021/06/14 06:36:22;;;;;;;4.28;2.70;;;;;;;20.44;62.01;100950.40;1706228;83;20975;-49
2021/06/14 06:38:48;;;;;;;4.85;2.00;;;;;;;20.49;61.87;100945.67;1709514;82;21518;-49
2021/06/14 06:41:15;;;;;;;4.60;2.30;;;;;;;20.51;61.48;100947.75;1697423;82;21550;-49
2021/06/14 06:43:42;;;;;;;2.40;2.20;;;;;;;20.50;61.63;100949.56;1717771;82;21050;-48
2021/06/14 06:46:11;;;;;;;5.30;2.95;;;;;;;20.51;61.45;100953.03;1710720;81;21549;-49
2021/06/14 06:48:37;;;;;;;6.97;2.58;;;;;;;20.50;61.57;100956.64;1675931;83;21046;-48
2021/06/14 06:51:04;;;;;;;5.00;2.50;;;;;;;20.51;61.36;100953.89;1680632;84;21074;-49
2021/06/14 06:53:31;;;;;;;5.72;2.50;;;;;;;20.52;61.34;100958.25;1684883;84;21057;-48
2021/06/14 06:55:59;;;;;;;4.65;2.98;;;;;;;20.54;61.23;100961.66;1683769;83;21042;-49
2021/06/14 06:58:26;;;;;;;5.35;2.40;;;;;;;20.55;61.43;100962.48;1689994;83;21105;-49
2021/06/14 07:00:54;;;;;;;2.60;2.37;;;;;;;20.57;61.41;100957.95;1687769;84;21502;-49
2021/06/14 07:03:21;;;;;;;2.40;2.10;;;;;;;20.58;61.46;100960.53;1695783;83;21514;-49
2021/06/14 07:05:48;;;;;;;4.33;2.35;;;;;;;20.60;61.33;100966.58;1697311;83;21002;-49
2021/06/14 07:08:15;;;;;;;5.03;2.52;;;;;;;20.62;61.52;100963.38;1696694;82;21182;-49
2021/06/14 07:10:43;;;;;;;2.87;2.58;;;;;;;20.67;61.30;100967.89;1707819;82;21004;-49
2021/06/14 07:13:12;;;;;;;2.62;1.92;;;;;;;20.71;61.04;100977.34;1693966;82;21062;-48
2021/06/14 07:15:39;;;;;;;2.42;2.20;;;;;;;20.74;60.82;100970.56;1699850;81;21074;-48
2021/06/14 07:18:06;;;;;;;3.40;2.12;;;;;;;20.78;60.46;100969.90;1696275;84;21055;-49
2021/06/14 07:20:33;;;;;;;4.08;2.25;;;;;;;20.84;60.68;100980.11;1691949;83;21538;-49
2021/06/14 07:22:59;;;;;;;3.35;2.10;;;;;;;20.91;60.87;100992.89;1706604;82;21046;-49
2021/06/14 07:25:27;;;;;;;2.80;1.95;;;;;;;20.98;60.35;100988.91;1707110;83;21038;-49
2021/06/14 07:27:54;;;;;;;5.37;2.20;;;;;;;21.06;60.07;100991.97;1683404;83;21571;-49
2021/06/14 07:30:22;;;;;;;2.75;2.02;;;;;;;21.11;59.72;100986.87;1685570;83;21007;-49
2021/06/14 07:32:49;;;;;;;2.08;1.77;;;;;;;21.15;59.90;100991.02;1694135;83;21514;-49
2021/06/14 07:35:15;;;;;;;3.92;1.90;;;;;;;21.17;59.59;100989.99;1691272;83;21106;-49
2021/06/14 07:37:42;;;;;;;4.60;2.42;;;;;;;21.18;59.30;100994.81;1704110;82;21188;-48
2021/06/14 07:40:11;;;;;;;2.10;2.00;;;;;;;21.19;59.63;100988.56;1696836;84;21094;-50
2021/06/14 07:42:37;;;;;;;2.20;2.00;;;;;;;21.21;59.46;100994.61;1690573;84;21037;-49
2021/06/14 07:45:06;;;;;;;2.85;2.20;;;;;;;21.24;59.43;100995.77;1696493;83;21094;-49
2021/06/14 07:47:33;;;;;;;2.67;2.15;;;;;;;21.25;59.23;100994.33;1685622;83;21050;-49
2021/06/14 07:50:00;;;;;;;2.40;2.10;;;;;;;21.28;59.16;101004.75;1675609;83;21458;-49
2021/06/14 07:52:27;;;;;;;3.10;2.27;;;;;;;21.32;58.99;101004.08;1674069;83;21534;-48
2021/06/14 07:54:53;;;;;;;6.30;2.52;;;;;;;21.40;59.22;101011.06;1693764;83;21057;-49
2021/06/14 07:57:20;;;;;;;2.22;1.95;;;;;;;21.45;58.93;101008.50;1704519;82;21618;-49
2021/06/14 07:59:47;;;;;;;3.40;2.20;;;;;;;21.51;58.78;101001.98;1698728;83;21109;-49
2021/06/14 08:02:14;;;;;;;3.30;2.08;;;;;;;21.55;58.59;101006.14;1695981;83;21014;-49
2021/06/14 08:04:41;;;;;;;1.90;1.70;;;;;;;21.54;57.90;101002.64;1683911;83;21510;-49
2021/06/14 08:07:08;;;;;;;2.30;1.90;;;;;;;21.54;58.06;101017.20;1697601;83;21049;-49
2021/06/14 08:09:35;;;;;;;4.37;2.40;;;;;;;21.56;57.99;101017.09;1696511;84;21038;-49
2021/06/14 08:12:04;;;;;;;2.60;2.12;;;;;;;21.57;57.96;101017.02;1692194;83;21071;-49
2021/06/14 08:14:31;;;;;;;1.92;1.72;;;;;;;21.61;58.22;101034.88;1683008;83;21459;-49
2021/06/14 08:17:00;;;;;;;2.87;1.70;;;;;;;21.65;57.75;101030.63;1697342;83;21551;-49
2021/06/14 08:19:36;;;;;;;3.30;1.82;;;;;;;21.68;57.99;101025.59;1710537;83;21030;-49
2021/06/14 08:27:27;;;;;;;2.67;2.02;;;;;;;21.82;57.48;101029.09;1701410;82;20979;-49
2021/06/14 08:29:54;;;;;;;1.72;1.57;;;;;;;21.86;57.60;101018.67;1654233;85;21033;-49
2021/06/14 08:32:21;;;;;;;3.08;1.60;;;;;;;21.95;57.68;101021.22;1648066;85;21515;-49
2021/06/14 08:34:48;;;;;;;1.47;1.30;;;;;;;22.02;57.50;101017.23;1649681;86;21540;-49
2021/06/14 08:37:14;;;;;;;4.80;1.62;;;;;;;22.09;57.21;101021.17;1648270;85;21019;-50
2021/06/14 08:39:41;;;;;;;2.65;1.82;;;;;;;22.16;57.12;101026.45;1655457;85;21031;-49
2021/06/14 08:42:08;;;;;;;2.83;1.70;;;;;;;22.24;56.74;101039.20;1643494;85;21084;-49
2021/06/14 08:44:35;;;;;;;5.47;1.62;;;;;;;22.32;56.77;101032.45;1658041;85;21440;-49
2021/06/14 08:47:03;;;;;;;2.25;1.55;;;;;;;22.44;56.56;101037.44;1659488;85;21047;-50
2021/06/14 08:49:31;;;;;;;3.45;1.55;;;;;;;22.56;56.50;101035.29;1672173;84;21034;-49
2021/06/14 08:51:59;;;;;;;2.55;1.40;;;;;;;22.69;56.13;101035.36;1667346;84;21555;-49
2021/06/14 08:54:27;;;;;;;2.77;1.17;;;;;;;22.80;56.03;101035.45;1605263;87;21093;-50
2021/06/14 08:56:54;;;;;;;2.55;1.37;;;;;;;22.89;55.58;101037.50;1604766;88;21037;-49
2021/06/14 08:59:22;;;;;;;3.08;1.60;;;;;;;22.96;55.11;101042.74;1606845;88;21167;-49
2021/06/14 09:01:50;;;;;;;2.05;1.52;;;;;;;23.03;54.84;101037.41;1604504;87;21144;-49
2021/06/14 09:04:19;;;;;;;2.70;1.30;;;;;;;23.07;54.70;101037.09;1646054;86;21069;-49
2021/06/14 09:06:46;;;;;;;1.27;1.17;;;;;;;23.11;54.59;101044.36;1641328;85;21030;-49
2021/06/14 09:09:13;;;;;;;2.98;1.55;;;;;;;23.16;54.08;101046.23;1637406;87;21038;-49
2021/06/14 09:11:52;;;;;;;1.87;1.00;;;;;;;23.24;54.15;101051.86;1626651;86;21048;-49
2021/06/14 09:14:22;;;;;;;2.30;1.40;;;;;;;23.28;53.05;101046.23;1653352;86;21145;-49
2021/06/14 09:16:51;;;;;;;1.67;0.80;;;;;;;23.34;53.48;101048.96;1638544;86;21009;-50
2021/06/14 09:19:32;;;;;;;2.37;1.20;;;;;;;23.41;53.30;101051.57;1648720;84;21022;-50
2021/06/14 09:22:21;;;;;;;1.32;1.20;;;;;;;23.49;53.13;101053.20;1647895;85;21088;-50
2021/06/14 09:25:07;;;;;;;2.10;0.98;;;;;;;23.57;52.42;101049.53;1624052;86;21058;-50
2021/06/14 09:27:45;;;;;;;3.12;1.15;;;;;;;23.61;52.31;101045.70;1591077;90;21066;-49
2021/06/14 09:30:25;;;;;;;3.15;1.27;;;;;;;23.64;52.36;101048.11;1535192;92;21130;-49
2021/06/14 09:33:01;;;;;;;3.12;1.20;;;;;;;23.67;51.62;101046.58;1535955;92;21135;-50
2021/06/14 09:35:33;;;;;;;6.33;1.50;;;;;;;23.67;51.63;101050.57;1531469;92;21121;-50
2021/06/14 09:38:13;;;;;;;1.60;1.20;;;;;;;23.66;51.81;101053.34;1447463;98;21184;-49
2021/06/14 09:40:53;;;;;;;2.12;1.20;;;;;;;23.63;51.83;101051.75;1395783;100;21252;-49
2021/06/14 09:43:32;;;;;;;1.05;1.00;;;;;;;23.62;51.92;101048.70;1427412;98;21097;-49
2021/06/14 09:46:04;;;;;;;2.47;1.02;;;;;;;23.63;52.14;101038.46;1426390;98;21167;-49
2021/06/14 09:48:34;;;;;;;4.30;1.50;;;;;;;23.70;52.13;101049.51;1429831;98;21214;-49
2021/06/14 09:51:01;;;;;;;1.40;1.07;;;;;;;23.80;52.47;101051.88;1416892;97;21172;-50
2021/06/14 09:55:56;;;;;;;1.32;1.10;;;;;;;24.03;51.83;101047.94;1441426;98;21182;-50
2021/06/14 09:58:25;;;;;;;1.42;1.10;;;;;;;24.07;51.40;101044.09;1443737;98;21113;-50
2021/06/14 10:01:04;;;;;;;1.42;1.20;;;;;;;24.12;51.37;101052.59;1438999;98;21646;-50
2021/06/14 10:03:47;;;;;;;3.20;0.93;;;;;;;24.15;50.13;101053.69;1468203;96;21103;-50
2021/06/14 10:06:18;;;;;;;6.95;1.12;;;;;;;24.18;50.46;101052.62;1461232;96;21182;-49
2021/06/14 10:08:48;;;;;;;0.88;0.80;;;;;;;24.22;50.66;101058.94;1463666;96;21975;-49
2021/06/14 10:11:18;;;;;;;5.37;1.00;;;;;;;24.28;50.55;101056.80;1422178;99;21152;-50
2021/06/14 10:13:48;;;;;;;2.62;1.00;;;;;;;24.29;50.46;101062.00;1452552;97;21577;-50
2021/06/14 10:16:22;;;;;;;1.45;1.17;;;;;;;24.30;50.45;101058.87;1462537;97;21142;-49
2021/06/14 10:18:58;;;;;;;1.15;1.10;;;;;;;24.34;50.44;101064.33;1462172;97;21564;-49
2021/06/14 10:21:30;;;;;;;1.20;1.10;;;;;;;24.33;50.83;101054.16;1456818;96;21088;-50
2021/06/14 10:24:06;;;;;;;1.80;1.10;;;;;;;24.38;50.80;101055.16;1492782;92;21087;-50
2021/06/14 10:26:35;;;;;;;1.65;1.00;;;;;;;24.44;50.93;101056.03;1554650;91;21488;-49
2021/06/14 10:29:04;;;;;;;1.95;1.25;;;;;;;24.53;49.79;101061.97;1553387;91;21925;-50
2021/06/14 10:31:31;;;;;;;3.05;1.00;;;;;;;24.52;50.61;101067.80;1561423;90;21631;-50
2021/06/14 10:33:57;;;;;;;1.52;0.90;;;;;;;24.60;50.10;101060.56;1544765;88;21164;-49
2021/06/14 10:36:26;;;;;;;1.72;0.90;;;;;;;24.65;49.46;101063.70;1603513;88;21070;-48
2021/06/14 10:38:54;;;;;;;1.50;0.72;;;;;;;24.68;49.97;101059.50;1600691;88;21087;-49
2021/06/14 10:41:22;;;;;;;3.27;1.25;;;;;;;24.73;49.71;101067.53;1610486;88;21089;-50
2021/06/14 10:43:50;;;;;;;3.83;1.30;;;;;;;24.73;49.81;101069.33;1599556;89;21323;-49
2021/06/14 10:46:20;;;;;;;1.07;0.98;;;;;;;24.75;49.18;101067.44;1644301;85;21083;-49
2021/06/14 10:48:48;;;;;;;0.93;0.90;;;;;;;24.81;49.91;101058.98;1650087;85;21057;-49
2021/06/14 10:51:19;;;;;;;1.45;0.70;;;;;;;24.81;49.91;101058.98;1621443;86;21778;-49
2021/06/14 10:53:50;;;;;;;;;;;;;;;24.87;48.96;101057.19;1660065;86;21114;-48
2021/06/14 10:56:16;;;;;;;2.30;0.85;;;;;;;24.89;48.21;101053.92;1651091;85;20107;-49
2021/06/14 10:58:46;;;;;;;3.05;0.90;;;;;;;24.87;48.39;101052.69;1661701;84;21521;-49
2021/06/14 11:01:16;;;;;;;2.08;1.00;;;;;;;24.86;48.54;101050.15;1697918;83;21027;-48
2021/06/14 11:03:44;;;;;;;1.25;1.07;;;;;;;24.86;48.71;101044.35;1681434;82;21028;-49
2021/06/14 11:06:16;;;;;;;3.87;1.00;;;;;;;24.93;48.73;101042.93;1696011;84;21053;-49
2021/06/14 11:08:44;;;;;;;1.80;0.80;;;;;;;24.98;48.16;101045.21;1679147;83;21022;-49
2021/06/14 11:11:11;;;;;;;1.17;1.05;;;;;;;25.00;47.98;101043.28;1671360;83;21090;-49
2021/06/14 11:13:49;;;;;;;1.32;0.98;;;;;;;25.06;48.30;101046.80;1672927;84;21062;-49
2021/06/14 11:16:16;;;;;;;2.47;0.82;;;;;;;25.11;47.95;101045.97;1701098;83;21023;-48
2021/06/14 11:18:43;;;;;;;1.10;0.78;;;;;;;25.16;48.18;101051.81;1705330;82;21006;-48
2021/06/14 11:21:16;;;;;;;5.03;1.00;;;;;;;25.20;47.50;101053.27;1687111;82;21023;-48
2021/06/14 11:23:45;;;;;;;5.17;1.00;;;;;;;25.23;47.67;101045.02;1701579;83;21087;-48
2021/06/14 11:26:13;;;;;;;1.65;0.90;;;;;;;25.24;47.34;101052.53;1679867;83;21573;-48
2021/06/14 11:28:43;;;;;;;2.33;1.20;;;;;;;25.30;47.24;101056.91;1690710;84;21068;-48
2021/06/14 11:31:24;;;;;;;2.17;0.90;;;;;;;25.35;46.84;101053.38;1704356;83;21062;-48
2021/06/14 11:33:54;;;;;;;1.55;1.07;;;;;;;25.41;47.13;101050.77;1667690;85;21645;-48
2021/06/14 11:36:29;;;;;;;3.22;1.10;;;;;;;25.43;47.05;101046.99;1663118;85;22481;-48
2021/06/14 11:38:57;;;;;;;0.88;0.88;;;;;;;25.40;47.31;101052.55;1652530;85;21066;-48
2021/06/14 11:41:31;;;;;;;18.42;2.00;;;;;;;25.38;47.06;101047.83;1663240;84;21070;-48
2021/06/14 11:44:27;;;;;;;1.95;1.17;;;;;;;25.37;46.69;101040.78;1650073;86;21059;-48